sensor_id;sensor_type;location;lat;lon;timestamp;P1;durP1;ratioP1;P2;durP2;ratioP2
17091;SDS011;8661;45.700;4.880;2023-12-20T00:00:00;46.27;;;27.33;;
17091;SDS011;8661;45.700;4.880;2023-12-20T00:02:27;47.13;;;27.33;;
17091;SDS011;8661;45.700;4.880;2023-12-20T00:04:57;45.13;;;27.07;;
17091;SDS011;8661;45.700;4.880;2023-12-20T00:07:25;52.47;;;27.17;;
17091;SDS011;8661;45.700;4.880;2023-12-20T00:09:54;47.87;;;26.83;;
17091;SDS011;8661;45.700;4.880;2023-12-20T00:12:21;51.73;;;28.33;;
17091;SDS011;8661;45.700;4.880;2023-12-20T00:14:48;49.63;;;26.63;;
17091;SDS011;8661;45.700;4.880;2023-12-20T00:17:15;48.40;;;26.90;;
17091;SDS011;8661;45.700;4.880;2023-12-20T00:19:41;45.57;;;27.53;;
17091;SDS011;8661;45.700;4.880;2023-12-20T00:22:08;45.60;;;25.73;;
17091;SDS011;8661;45.700;4.880;2023-12-20T00:24:35;47.87;;;27.03;;
17091;SDS011;8661;45.700;4.880;2023-12-20T00:27:04;42.97;;;26.40;;
17091;SDS011;8661;45.700;4.880;2023-12-20T00:29:31;47.90;;;27.20;;
17091;SDS011;8661;45.700;4.880;2023-12-20T00:31:58;45.43;;;25.33;;
17091;SDS011;8661;45.700;4.880;2023-12-20T00:34:25;42.70;;;25.27;;
17091;SDS011;8661;45.700;4.880;2023-12-20T00:36:52;43.43;;;26.10;;
17091;SDS011;8661;45.700;4.880;2023-12-20T00:39:20;43.77;;;25.53;;
17091;SDS011;8661;45.700;4.880;2023-12-20T00:41:47;45.77;;;23.90;;
17091;SDS011;8661;45.700;4.880;2023-12-20T00:44:15;44.60;;;24.43;;
17091;SDS011;8661;45.700;4.880;2023-12-20T00:46:42;44.87;;;25.00;;
17091;SDS011;8661;45.700;4.880;2023-12-20T00:49:09;48.87;;;26.93;;
17091;SDS011;8661;45.700;4.880;2023-12-20T00:51:36;45.27;;;24.13;;
17091;SDS011;8661;45.700;4.880;2023-12-20T00:54:03;46.57;;;25.80;;
17091;SDS011;8661;45.700;4.880;2023-12-20T00:56:30;44.67;;;25.23;;
17091;SDS011;8661;45.700;4.880;2023-12-20T00:58:57;49.37;;;26.63;;
17091;SDS011;8661;45.700;4.880;2023-12-20T01:01:25;43.07;;;23.87;;
17091;SDS011;8661;45.700;4.880;2023-12-20T01:03:52;43.70;;;25.37;;
17091;SDS011;8661;45.700;4.880;2023-12-20T01:06:20;40.23;;;24.47;;
17091;SDS011;8661;45.700;4.880;2023-12-20T01:08:55;42.73;;;24.83;;
17091;SDS011;8661;45.700;4.880;2023-12-20T01:11:22;44.57;;;24.47;;
17091;SDS011;8661;45.700;4.880;2023-12-20T01:13:49;38.47;;;23.77;;
17091;SDS011;8661;45.700;4.880;2023-12-20T01:16:16;41.20;;;23.60;;
17091;SDS011;8661;45.700;4.880;2023-12-20T01:18:47;38.50;;;23.17;;
17091;SDS011;8661;45.700;4.880;2023-12-20T01:21:14;38.20;;;21.90;;
17091;SDS011;8661;45.700;4.880;2023-12-20T01:23:41;38.67;;;22.53;;
17091;SDS011;8661;45.700;4.880;2023-12-20T01:26:08;35.13;;;22.00;;
17091;SDS011;8661;45.700;4.880;2023-12-20T01:28:36;39.00;;;22.87;;
17091;SDS011;8661;45.700;4.880;2023-12-20T01:31:04;35.37;;;21.33;;
17091;SDS011;8661;45.700;4.880;2023-12-20T01:33:37;37.47;;;21.47;;
17091;SDS011;8661;45.700;4.880;2023-12-20T01:36:08;34.93;;;22.67;;
17091;SDS011;8661;45.700;4.880;2023-12-20T01:38:41;34.43;;;22.00;;
17091;SDS011;8661;45.700;4.880;2023-12-20T01:41:08;36.33;;;22.73;;
17091;SDS011;8661;45.700;4.880;2023-12-20T01:43:37;36.70;;;22.57;;
17091;SDS011;8661;45.700;4.880;2023-12-20T01:46:11;35.93;;;22.60;;
17091;SDS011;8661;45.700;4.880;2023-12-20T01:48:39;40.13;;;23.40;;
17091;SDS011;8661;45.700;4.880;2023-12-20T01:51:07;39.80;;;23.73;;
17091;SDS011;8661;45.700;4.880;2023-12-20T01:53:40;43.67;;;24.63;;
17091;SDS011;8661;45.700;4.880;2023-12-20T01:56:12;40.77;;;23.93;;
17091;SDS011;8661;45.700;4.880;2023-12-20T01:58:42;39.40;;;23.37;;
17091;SDS011;8661;45.700;4.880;2023-12-20T02:01:11;41.30;;;23.97;;
17091;SDS011;8661;45.700;4.880;2023-12-20T02:03:38;42.27;;;24.43;;
17091;SDS011;8661;45.700;4.880;2023-12-20T02:06:07;39.23;;;24.13;;
17091;SDS011;8661;45.700;4.880;2023-12-20T02:08:36;37.20;;;22.73;;
17091;SDS011;8661;45.700;4.880;2023-12-20T02:11:03;45.37;;;24.67;;
17091;SDS011;8661;45.700;4.880;2023-12-20T02:13:31;40.47;;;23.13;;
17091;SDS011;8661;45.700;4.880;2023-12-20T02:15:58;38.33;;;22.33;;
17091;SDS011;8661;45.700;4.880;2023-12-20T02:18:25;36.37;;;21.80;;
17091;SDS011;8661;45.700;4.880;2023-12-20T02:20:52;39.97;;;22.83;;
17091;SDS011;8661;45.700;4.880;2023-12-20T02:23:21;35.87;;;21.40;;
17091;SDS011;8661;45.700;4.880;2023-12-20T02:25:48;34.70;;;22.40;;
17091;SDS011;8661;45.700;4.880;2023-12-20T02:28:15;35.43;;;21.07;;
17091;SDS011;8661;45.700;4.880;2023-12-20T02:30:43;33.83;;;20.10;;
17091;SDS011;8661;45.700;4.880;2023-12-20T02:33:10;34.57;;;20.23;;
17091;SDS011;8661;45.700;4.880;2023-12-20T02:35:40;35.33;;;21.13;;
17091;SDS011;8661;45.700;4.880;2023-12-20T02:38:07;31.93;;;19.97;;
17091;SDS011;8661;45.700;4.880;2023-12-20T02:40:36;39.13;;;20.87;;
17091;SDS011;8661;45.700;4.880;2023-12-20T02:43:03;36.17;;;19.70;;
17091;SDS011;8661;45.700;4.880;2023-12-20T02:45:30;32.97;;;18.00;;
17091;SDS011;8661;45.700;4.880;2023-12-20T02:47:57;33.53;;;17.77;;
17091;SDS011;8661;45.700;4.880;2023-12-20T02:50:24;33.50;;;17.77;;
17091;SDS011;8661;45.700;4.880;2023-12-20T02:52:52;28.83;;;15.27;;
17091;SDS011;8661;45.700;4.880;2023-12-20T02:55:19;2.00;;;1.83;;
17091;SDS011;8661;45.700;4.880;2023-12-20T02:57:49;1.00;;;1.00;;
17091;SDS011;8661;45.700;4.880;2023-12-20T03:00:16;2.63;;;2.07;;
17091;SDS011;8661;45.700;4.880;2023-12-20T03:02:44;1.17;;;1.07;;
17091;SDS011;8661;45.700;4.880;2023-12-20T03:05:11;3.50;;;1.43;;
17091;SDS011;8661;45.700;4.880;2023-12-20T03:07:39;0.70;;;0.70;;
17091;SDS011;8661;45.700;4.880;2023-12-20T03:10:06;0.70;;;0.70;;
17091;SDS011;8661;45.700;4.880;2023-12-20T03:12:34;0.73;;;0.73;;
17091;SDS011;8661;45.700;4.880;2023-12-20T03:15:03;0.70;;;0.70;;
17091;SDS011;8661;45.700;4.880;2023-12-20T03:17:31;2.83;;;1.50;;
17091;SDS011;8661;45.700;4.880;2023-12-20T03:19:58;0.70;;;0.70;;
17091;SDS011;8661;45.700;4.880;2023-12-20T03:22:25;0.40;;;0.40;;
17091;SDS011;8661;45.700;4.880;2023-12-20T03:24:53;0.70;;;0.70;;
17091;SDS011;8661;45.700;4.880;2023-12-20T03:27:20;0.50;;;0.50;;
17091;SDS011;8661;45.700;4.880;2023-12-20T03:29:47;0.87;;;0.87;;
17091;SDS011;8661;45.700;4.880;2023-12-20T03:32:15;0.70;;;0.70;;
17091;SDS011;8661;45.700;4.880;2023-12-20T03:34:42;0.50;;;0.50;;
17091;SDS011;8661;45.700;4.880;2023-12-20T03:37:09;0.40;;;0.40;;
17091;SDS011;8661;45.700;4.880;2023-12-20T03:39:36;0.50;;;0.50;;
17091;SDS011;8661;45.700;4.880;2023-12-20T03:42:04;0.40;;;0.40;;
17091;SDS011;8661;45.700;4.880;2023-12-20T03:44:31;0.60;;;0.60;;
17091;SDS011;8661;45.700;4.880;2023-12-20T03:46:58;0.40;;;0.40;;
17091;SDS011;8661;45.700;4.880;2023-12-20T03:49:26;0.43;;;0.43;;
17091;SDS011;8661;45.700;4.880;2023-12-20T03:51:53;0.47;;;0.47;;
17091;SDS011;8661;45.700;4.880;2023-12-20T03:54:20;0.40;;;0.40;;
17091;SDS011;8661;45.700;4.880;2023-12-20T03:59:34;0.40;;;0.40;;
17091;SDS011;8661;45.700;4.880;2023-12-20T04:02:01;0.47;;;0.47;;
17091;SDS011;8661;45.700;4.880;2023-12-20T04:04:29;0.50;;;0.50;;
17091;SDS011;8661;45.700;4.880;2023-12-20T04:06:56;0.40;;;0.40;;
17091;SDS011;8661;45.700;4.880;2023-12-20T04:09:24;0.40;;;0.40;;
17091;SDS011;8661;45.700;4.880;2023-12-20T04:11:50;0.40;;;0.40;;
17091;SDS011;8661;45.700;4.880;2023-12-20T04:14:17;0.40;;;0.40;;
17091;SDS011;8661;45.700;4.880;2023-12-20T04:16:47;0.40;;;0.40;;
17091;SDS011;8661;45.700;4.880;2023-12-20T04:19:14;0.40;;;0.40;;
17091;SDS011;8661;45.700;4.880;2023-12-20T04:21:42;0.40;;;0.40;;
17091;SDS011;8661;45.700;4.880;2023-12-20T04:24:09;0.40;;;0.40;;
17091;SDS011;8661;45.700;4.880;2023-12-20T04:26:36;0.40;;;0.40;;
17091;SDS011;8661;45.700;4.880;2023-12-20T04:29:05;0.50;;;0.50;;
17091;SDS011;8661;45.700;4.880;2023-12-20T04:31:44;0.40;;;0.40;;
17091;SDS011;8661;45.700;4.880;2023-12-20T04:34:23;0.50;;;0.50;;
17091;SDS011;8661;45.700;4.880;2023-12-20T04:36:52;0.40;;;0.40;;
17091;SDS011;8661;45.700;4.880;2023-12-20T04:39:19;0.40;;;0.40;;
17091;SDS011;8661;45.700;4.880;2023-12-20T04:41:47;0.40;;;0.40;;
17091;SDS011;8661;45.700;4.880;2023-12-20T04:44:15;0.50;;;0.50;;
17091;SDS011;8661;45.700;4.880;2023-12-20T04:46:42;0.40;;;0.40;;
17091;SDS011;8661;45.700;4.880;2023-12-20T04:49:09;0.50;;;0.50;;
17091;SDS011;8661;45.700;4.880;2023-12-20T04:51:36;0.40;;;0.40;;
17091;SDS011;8661;45.700;4.880;2023-12-20T04:54:05;0.50;;;0.50;;
17091;SDS011;8661;45.700;4.880;2023-12-20T04:56:38;0.40;;;0.40;;
17091;SDS011;8661;45.700;4.880;2023-12-20T04:59:19;0.40;;;0.40;;
17091;SDS011;8661;45.700;4.880;2023-12-20T05:01:51;0.40;;;0.40;;
17091;SDS011;8661;45.700;4.880;2023-12-20T05:04:22;0.40;;;0.40;;
17091;SDS011;8661;45.700;4.880;2023-12-20T05:06:51;0.50;;;0.50;;
17091;SDS011;8661;45.700;4.880;2023-12-20T05:09:23;0.40;;;0.40;;
17091;SDS011;8661;45.700;4.880;2023-12-20T05:11:52;0.40;;;0.40;;
17091;SDS011;8661;45.700;4.880;2023-12-20T05:14:20;0.40;;;0.40;;
17091;SDS011;8661;45.700;4.880;2023-12-20T05:16:47;0.70;;;0.70;;
17091;SDS011;8661;45.700;4.880;2023-12-20T05:19:16;0.50;;;0.50;;
17091;SDS011;8661;45.700;4.880;2023-12-20T05:21:43;0.40;;;0.40;;
17091;SDS011;8661;45.700;4.880;2023-12-20T05:24:10;0.50;;;0.50;;
17091;SDS011;8661;45.700;4.880;2023-12-20T05:26:45;5.50;;;0.73;;
17091;SDS011;8661;45.700;4.880;2023-12-20T05:29:14;0.40;;;0.40;;
17091;SDS011;8661;45.700;4.880;2023-12-20T05:31:42;0.40;;;0.40;;
17091;SDS011;8661;45.700;4.880;2023-12-20T05:34:09;0.50;;;0.50;;
17091;SDS011;8661;45.700;4.880;2023-12-20T05:36:36;0.40;;;0.40;;
17091;SDS011;8661;45.700;4.880;2023-12-20T05:39:04;0.40;;;0.40;;
17091;SDS011;8661;45.700;4.880;2023-12-20T05:41:32;0.50;;;0.50;;
17091;SDS011;8661;45.700;4.880;2023-12-20T05:44:03;0.40;;;0.40;;
17091;SDS011;8661;45.700;4.880;2023-12-20T05:46:30;0.40;;;0.40;;
17091;SDS011;8661;45.700;4.880;2023-12-20T05:49:02;0.40;;;0.40;;
17091;SDS011;8661;45.700;4.880;2023-12-20T05:51:31;0.40;;;0.40;;
17091;SDS011;8661;45.700;4.880;2023-12-20T05:54:00;0.40;;;0.40;;
17091;SDS011;8661;45.700;4.880;2023-12-20T05:56:27;0.50;;;0.50;;
17091;SDS011;8661;45.700;4.880;2023-12-20T05:58:57;0.40;;;0.40;;
17091;SDS011;8661;45.700;4.880;2023-12-20T06:01:26;0.40;;;0.40;;
17091;SDS011;8661;45.700;4.880;2023-12-20T06:04:02;0.40;;;0.40;;
17091;SDS011;8661;45.700;4.880;2023-12-20T06:06:55;0.50;;;0.50;;
17091;SDS011;8661;45.700;4.880;2023-12-20T06:09:28;0.40;;;0.40;;
17091;SDS011;8661;45.700;4.880;2023-12-20T06:12:02;0.40;;;0.40;;
17091;SDS011;8661;45.700;4.880;2023-12-20T06:14:30;0.40;;;0.40;;
17091;SDS011;8661;45.700;4.880;2023-12-20T06:16:59;0.40;;;0.40;;
17091;SDS011;8661;45.700;4.880;2023-12-20T06:19:28;0.50;;;0.50;;
17091;SDS011;8661;45.700;4.880;2023-12-20T06:22:02;0.40;;;0.40;;
17091;SDS011;8661;45.700;4.880;2023-12-20T06:24:30;0.47;;;0.47;;
17091;SDS011;8661;45.700;4.880;2023-12-20T06:27:06;0.60;;;0.60;;
17091;SDS011;8661;45.700;4.880;2023-12-20T06:29:36;0.40;;;0.40;;
17091;SDS011;8661;45.700;4.880;2023-12-20T06:32:19;0.40;;;0.40;;
17091;SDS011;8661;45.700;4.880;2023-12-20T06:34:50;0.40;;;0.40;;
17091;SDS011;8661;45.700;4.880;2023-12-20T06:37:19;0.40;;;0.40;;
17091;SDS011;8661;45.700;4.880;2023-12-20T06:39:57;0.40;;;0.40;;
17091;SDS011;8661;45.700;4.880;2023-12-20T06:42:26;0.40;;;0.40;;
17091;SDS011;8661;45.700;4.880;2023-12-20T06:45:49;0.50;;;0.50;;
17091;SDS011;8661;45.700;4.880;2023-12-20T06:48:27;0.67;;;0.67;;
17091;SDS011;8661;45.700;4.880;2023-12-20T06:51:16;0.40;;;0.40;;
17091;SDS011;8661;45.700;4.880;2023-12-20T06:53:52;0.40;;;0.40;;
17091;SDS011;8661;45.700;4.880;2023-12-20T06:56:45;0.40;;;0.40;;
17091;SDS011;8661;45.700;4.880;2023-12-20T06:59:18;0.40;;;0.40;;
17091;SDS011;8661;45.700;4.880;2023-12-20T07:01:50;0.40;;;0.40;;
17091;SDS011;8661;45.700;4.880;2023-12-20T07:07:42;0.40;;;0.40;;
17091;SDS011;8661;45.700;4.880;2023-12-20T07:10:22;0.50;;;0.50;;
17091;SDS011;8661;45.700;4.880;2023-12-20T07:12:52;0.40;;;0.40;;
17091;SDS011;8661;45.700;4.880;2023-12-20T07:15:34;0.50;;;0.50;;
17091;SDS011;8661;45.700;4.880;2023-12-20T07:18:08;0.40;;;0.40;;
17091;SDS011;8661;45.700;4.880;2023-12-20T07:20:37;0.40;;;0.40;;
17091;SDS011;8661;45.700;4.880;2023-12-20T07:23:12;0.40;;;0.40;;
17091;SDS011;8661;45.700;4.880;2023-12-20T07:25:47;0.50;;;0.50;;
17091;SDS011;8661;45.700;4.880;2023-12-20T07:31:45;1.17;;;0.93;;
17091;SDS011;8661;45.700;4.880;2023-12-20T07:34:17;0.60;;;0.60;;
17091;SDS011;8661;45.700;4.880;2023-12-20T07:36:46;0.40;;;0.40;;
17091;SDS011;8661;45.700;4.880;2023-12-20T07:39:15;0.40;;;0.40;;
17091;SDS011;8661;45.700;4.880;2023-12-20T07:41:46;0.40;;;0.40;;
17091;SDS011;8661;45.700;4.880;2023-12-20T07:47:18;0.50;;;0.50;;
17091;SDS011;8661;45.700;4.880;2023-12-20T07:49:52;0.70;;;0.70;;
17091;SDS011;8661;45.700;4.880;2023-12-20T07:52:19;0.43;;;0.43;;
17091;SDS011;8661;45.700;4.880;2023-12-20T07:54:50;1.30;;;0.70;;
17091;SDS011;8661;45.700;4.880;2023-12-20T07:57:17;0.53;;;0.53;;
17091;SDS011;8661;45.700;4.880;2023-12-20T07:59:44;0.40;;;0.40;;
17091;SDS011;8661;45.700;4.880;2023-12-20T08:02:34;0.67;;;0.67;;
17091;SDS011;8661;45.700;4.880;2023-12-20T08:05:12;0.40;;;0.40;;
17091;SDS011;8661;45.700;4.880;2023-12-20T08:16:53;0.60;;;0.60;;
17091;SDS011;8661;45.700;4.880;2023-12-20T08:19:26;0.40;;;0.40;;
17091;SDS011;8661;45.700;4.880;2023-12-20T08:22:03;1.03;;;0.93;;
17091;SDS011;8661;45.700;4.880;2023-12-20T08:24:40;0.47;;;0.47;;
17091;SDS011;8661;45.700;4.880;2023-12-20T08:27:21;0.73;;;0.73;;
17091;SDS011;8661;45.700;4.880;2023-12-20T08:29:55;0.83;;;0.83;;
17091;SDS011;8661;45.700;4.880;2023-12-20T08:32:40;0.63;;;0.63;;
17091;SDS011;8661;45.700;4.880;2023-12-20T08:35:13;0.40;;;0.40;;
17091;SDS011;8661;45.700;4.880;2023-12-20T08:37:56;0.40;;;0.40;;
17091;SDS011;8661;45.700;4.880;2023-12-20T08:40:25;0.60;;;0.60;;
17091;SDS011;8661;45.700;4.880;2023-12-20T08:42:52;0.83;;;0.63;;
17091;SDS011;8661;45.700;4.880;2023-12-20T08:45:45;0.50;;;0.50;;
17091;SDS011;8661;45.700;4.880;2023-12-20T08:48:20;0.50;;;0.50;;
17091;SDS011;8661;45.700;4.880;2023-12-20T08:51:07;0.40;;;0.40;;
17091;SDS011;8661;45.700;4.880;2023-12-20T08:53:53;0.50;;;0.50;;
17091;SDS011;8661;45.700;4.880;2023-12-20T08:56:45;0.87;;;0.87;;
17091;SDS011;8661;45.700;4.880;2023-12-20T08:59:26;0.70;;;0.70;;
17091;SDS011;8661;45.700;4.880;2023-12-20T09:02:21;0.50;;;0.50;;
17091;SDS011;8661;45.700;4.880;2023-12-20T09:05:22;0.40;;;0.40;;
17091;SDS011;8661;45.700;4.880;2023-12-20T09:08:14;0.40;;;0.40;;
17091;SDS011;8661;45.700;4.880;2023-12-20T09:10:42;0.50;;;0.50;;
17091;SDS011;8661;45.700;4.880;2023-12-20T09:13:24;0.57;;;0.57;;
17091;SDS011;8661;45.700;4.880;2023-12-20T09:16:04;0.87;;;0.87;;
17091;SDS011;8661;45.700;4.880;2023-12-20T09:18:42;0.43;;;0.43;;
17091;SDS011;8661;45.700;4.880;2023-12-20T09:21:17;0.50;;;0.50;;
17091;SDS011;8661;45.700;4.880;2023-12-20T09:23:49;0.37;;;0.37;;
17091;SDS011;8661;45.700;4.880;2023-12-20T09:26:17;0.40;;;0.40;;
17091;SDS011;8661;45.700;4.880;2023-12-20T09:28:51;0.30;;;0.30;;
17091;SDS011;8661;45.700;4.880;2023-12-20T09:31:21;0.40;;;0.40;;
17091;SDS011;8661;45.700;4.880;2023-12-20T09:33:52;0.40;;;0.40;;
17091;SDS011;8661;45.700;4.880;2023-12-20T09:36:19;0.70;;;0.70;;
17091;SDS011;8661;45.700;4.880;2023-12-20T09:38:52;0.40;;;0.40;;
17091;SDS011;8661;45.700;4.880;2023-12-20T09:41:19;0.63;;;0.63;;
17091;SDS011;8661;45.700;4.880;2023-12-20T09:43:47;0.40;;;0.40;;
17091;SDS011;8661;45.700;4.880;2023-12-20T09:46:16;0.40;;;0.40;;
17091;SDS011;8661;45.700;4.880;2023-12-20T09:49:14;0.57;;;0.57;;
17091;SDS011;8661;45.700;4.880;2023-12-20T09:51:56;0.90;;;0.60;;
17091;SDS011;8661;45.700;4.880;2023-12-20T09:54:27;0.40;;;0.40;;
17091;SDS011;8661;45.700;4.880;2023-12-20T09:56:55;0.37;;;0.37;;
17091;SDS011;8661;45.700;4.880;2023-12-20T09:59:24;0.40;;;0.40;;
17091;SDS011;8661;45.700;4.880;2023-12-20T10:01:51;0.30;;;0.30;;
17091;SDS011;8661;45.700;4.880;2023-12-20T10:04:23;0.30;;;0.30;;
17091;SDS011;8661;45.700;4.880;2023-12-20T10:07:01;1.80;;;0.90;;
17091;SDS011;8661;45.700;4.880;2023-12-20T10:09:31;0.33;;;0.33;;
17091;SDS011;8661;45.700;4.880;2023-12-20T10:11:59;0.37;;;0.37;;
17091;SDS011;8661;45.700;4.880;2023-12-20T10:14:26;0.60;;;0.60;;
17091;SDS011;8661;45.700;4.880;2023-12-20T10:17:18;0.30;;;0.30;;
17091;SDS011;8661;45.700;4.880;2023-12-20T10:19:51;0.40;;;0.40;;
17091;SDS011;8661;45.700;4.880;2023-12-20T10:22:19;0.50;;;0.50;;
17091;SDS011;8661;45.700;4.880;2023-12-20T10:24:48;0.63;;;0.63;;
17091;SDS011;8661;45.700;4.880;2023-12-20T10:27:15;0.40;;;0.40;;
17091;SDS011;8661;45.700;4.880;2023-12-20T10:29:56;0.30;;;0.30;;
17091;SDS011;8661;45.700;4.880;2023-12-20T10:32:30;0.30;;;0.30;;
17091;SDS011;8661;45.700;4.880;2023-12-20T10:35:08;0.40;;;0.40;;
17091;SDS011;8661;45.700;4.880;2023-12-20T10:37:38;0.47;;;0.47;;
17091;SDS011;8661;45.700;4.880;2023-12-20T10:40:13;0.40;;;0.40;;
17091;SDS011;8661;45.700;4.880;2023-12-20T10:42:42;0.30;;;0.30;;
17091;SDS011;8661;45.700;4.880;2023-12-20T10:45:12;0.30;;;0.30;;
17091;SDS011;8661;45.700;4.880;2023-12-20T10:47:42;0.30;;;0.30;;
17091;SDS011;8661;45.700;4.880;2023-12-20T10:50:19;0.30;;;0.30;;
17091;SDS011;8661;45.700;4.880;2023-12-20T10:52:48;0.50;;;0.50;;
17091;SDS011;8661;45.700;4.880;2023-12-20T10:55:46;0.30;;;0.30;;
17091;SDS011;8661;45.700;4.880;2023-12-20T10:58:28;0.47;;;0.47;;
17091;SDS011;8661;45.700;4.880;2023-12-20T11:00:59;0.40;;;0.40;;
17091;SDS011;8661;45.700;4.880;2023-12-20T11:03:32;0.40;;;0.40;;
17091;SDS011;8661;45.700;4.880;2023-12-20T11:06:05;0.30;;;0.30;;
17091;SDS011;8661;45.700;4.880;2023-12-20T11:08:42;0.50;;;0.50;;
17091;SDS011;8661;45.700;4.880;2023-12-20T11:11:24;0.30;;;0.30;;
17091;SDS011;8661;45.700;4.880;2023-12-20T11:13:59;0.30;;;0.30;;
17091;SDS011;8661;45.700;4.880;2023-12-20T11:16:31;0.40;;;0.40;;
17091;SDS011;8661;45.700;4.880;2023-12-20T11:19:04;0.30;;;0.30;;
17091;SDS011;8661;45.700;4.880;2023-12-20T11:21:45;0.40;;;0.40;;
17091;SDS011;8661;45.700;4.880;2023-12-20T11:24:18;0.30;;;0.30;;
17091;SDS011;8661;45.700;4.880;2023-12-20T11:26:54;0.40;;;0.40;;
17091;SDS011;8661;45.700;4.880;2023-12-20T11:29:29;0.30;;;0.30;;
17091;SDS011;8661;45.700;4.880;2023-12-20T11:32:03;0.30;;;0.30;;
17091;SDS011;8661;45.700;4.880;2023-12-20T11:34:56;0.20;;;0.20;;
17091;SDS011;8661;45.700;4.880;2023-12-20T11:37:30;0.30;;;0.30;;
17091;SDS011;8661;45.700;4.880;2023-12-20T11:40:02;0.30;;;0.30;;
17091;SDS011;8661;45.700;4.880;2023-12-20T11:42:37;0.30;;;0.30;;
17091;SDS011;8661;45.700;4.880;2023-12-20T11:45:06;0.30;;;0.30;;
17091;SDS011;8661;45.700;4.880;2023-12-20T11:47:40;0.30;;;0.30;;
17091;SDS011;8661;45.700;4.880;2023-12-20T11:50:15;0.30;;;0.30;;
17091;SDS011;8661;45.700;4.880;2023-12-20T11:52:44;0.30;;;0.30;;
17091;SDS011;8661;45.700;4.880;2023-12-20T11:55:12;0.30;;;0.30;;
17091;SDS011;8661;45.700;4.880;2023-12-20T11:57:42;0.30;;;0.30;;
17091;SDS011;8661;45.700;4.880;2023-12-20T12:00:11;0.30;;;0.30;;
17091;SDS011;8661;45.700;4.880;2023-12-20T12:02:40;0.30;;;0.30;;
17091;SDS011;8661;45.700;4.880;2023-12-20T12:05:21;0.43;;;0.43;;
17091;SDS011;8661;45.700;4.880;2023-12-20T12:07:49;0.30;;;0.30;;
17091;SDS011;8661;45.700;4.880;2023-12-20T12:10:16;0.30;;;0.30;;
17091;SDS011;8661;45.700;4.880;2023-12-20T12:12:43;0.40;;;0.40;;
17091;SDS011;8661;45.700;4.880;2023-12-20T12:15:14;0.30;;;0.30;;
17091;SDS011;8661;45.700;4.880;2023-12-20T12:18:21;0.67;;;0.67;;
17091;SDS011;8661;45.700;4.880;2023-12-20T12:20:52;0.30;;;0.30;;
17091;SDS011;8661;45.700;4.880;2023-12-20T12:23:49;0.30;;;0.30;;
17091;SDS011;8661;45.700;4.880;2023-12-20T12:26:34;0.30;;;0.30;;
17091;SDS011;8661;45.700;4.880;2023-12-20T12:29:07;0.50;;;0.50;;
17091;SDS011;8661;45.700;4.880;2023-12-20T12:32:33;0.40;;;0.40;;
17091;SDS011;8661;45.700;4.880;2023-12-20T13:05:25;0.30;;;0.30;;
17091;SDS011;8661;45.700;4.880;2023-12-20T13:10:54;0.30;;;0.30;;
17091;SDS011;8661;45.700;4.880;2023-12-20T13:13:26;0.30;;;0.30;;
17091;SDS011;8661;45.700;4.880;2023-12-20T13:15:55;0.30;;;0.30;;
17091;SDS011;8661;45.700;4.880;2023-12-20T13:18:29;0.70;;;0.67;;
17091;SDS011;8661;45.700;4.880;2023-12-20T13:24:11;0.30;;;0.30;;
17091;SDS011;8661;45.700;4.880;2023-12-20T13:28:20;0.30;;;0.30;;
17091;SDS011;8661;45.700;4.880;2023-12-20T13:32:46;7.97;;;2.80;;
17091;SDS011;8661;45.700;4.880;2023-12-20T13:35:14;11.37;;;2.67;;
17091;SDS011;8661;45.700;4.880;2023-12-20T13:37:42;4.13;;;2.30;;
17091;SDS011;8661;45.700;4.880;2023-12-20T13:40:30;2.67;;;1.77;;
17091;SDS011;8661;45.700;4.880;2023-12-20T13:43:19;4.60;;;1.70;;
17091;SDS011;8661;45.700;4.880;2023-12-20T13:46:05;6.60;;;1.83;;
17091;SDS011;8661;45.700;4.880;2023-12-20T13:48:49;4.90;;;1.40;;
17091;SDS011;8661;45.700;4.880;2023-12-20T13:51:50;4.87;;;1.70;;
17091;SDS011;8661;45.700;4.880;2023-12-20T13:54:25;3.37;;;1.53;;
17091;SDS011;8661;45.700;4.880;2023-12-20T13:59:56;2.47;;;1.43;;
17091;SDS011;8661;45.700;4.880;2023-12-20T14:02:56;4.87;;;1.40;;
17091;SDS011;8661;45.700;4.880;2023-12-20T14:05:31;5.07;;;1.97;;
17091;SDS011;8661;45.700;4.880;2023-12-20T14:08:03;5.10;;;1.50;;
17091;SDS011;8661;45.700;4.880;2023-12-20T14:11:41;7.33;;;1.87;;
17091;SDS011;8661;45.700;4.880;2023-12-20T14:13:36;2.63;;;1.40;;
17091;SDS011;8661;45.700;4.880;2023-12-20T14:16:15;5.10;;;1.63;;
17091;SDS011;8661;45.700;4.880;2023-12-20T14:18:58;7.63;;;1.80;;
17091;SDS011;8661;45.700;4.880;2023-12-20T14:21:40;3.93;;;1.90;;
17091;SDS011;8661;45.700;4.880;2023-12-20T14:24:29;4.40;;;2.03;;
17091;SDS011;8661;45.700;4.880;2023-12-20T14:26:56;8.37;;;1.90;;
17091;SDS011;8661;45.700;4.880;2023-12-20T14:35:43;6.47;;;2.40;;
17091;SDS011;8661;45.700;4.880;2023-12-20T14:44:10;3.93;;;1.50;;
17091;SDS011;8661;45.700;4.880;2023-12-20T14:46:55;6.20;;;1.53;;
17091;SDS011;8661;45.700;4.880;2023-12-20T14:49:34;6.77;;;2.03;;
17091;SDS011;8661;45.700;4.880;2023-12-20T14:59:12;2.70;;;1.40;;
17091;SDS011;8661;45.700;4.880;2023-12-20T15:15:48;3.50;;;1.53;;
17091;SDS011;8661;45.700;4.880;2023-12-20T15:19:05;4.30;;;1.60;;
17091;SDS011;8661;45.700;4.880;2023-12-20T15:22:23;3.93;;;1.80;;
17091;SDS011;8661;45.700;4.880;2023-12-20T15:28:31;3.80;;;1.83;;
17091;SDS011;8661;45.700;4.880;2023-12-20T15:41:24;8.37;;;2.70;;
17091;SDS011;8661;45.700;4.880;2023-12-20T15:43:54;8.70;;;2.60;;
17091;SDS011;8661;45.700;4.880;2023-12-20T15:46:28;6.37;;;2.33;;
17091;SDS011;8661;45.700;4.880;2023-12-20T15:51:53;7.07;;;2.10;;
17091;SDS011;8661;45.700;4.880;2023-12-20T15:57:45;5.93;;;2.10;;
17091;SDS011;8661;45.700;4.880;2023-12-20T16:07:11;6.27;;;2.00;;
17091;SDS011;8661;45.700;4.880;2023-12-20T16:13:31;8.77;;;2.53;;
17091;SDS011;8661;45.700;4.880;2023-12-20T16:16:20;7.20;;;1.83;;
17091;SDS011;8661;45.700;4.880;2023-12-20T16:19:37;6.97;;;2.07;;
17091;SDS011;8661;45.700;4.880;2023-12-20T16:29:13;7.53;;;2.30;;
17091;SDS011;8661;45.700;4.880;2023-12-20T16:32:26;3.97;;;1.80;;
17091;SDS011;8661;45.700;4.880;2023-12-20T16:35:33;6.80;;;2.17;;
17091;SDS011;8661;45.700;4.880;2023-12-20T16:38:26;6.20;;;1.87;;
17091;SDS011;8661;45.700;4.880;2023-12-20T16:41:15;4.30;;;1.87;;
17091;SDS011;8661;45.700;4.880;2023-12-20T16:47:28;9.97;;;2.73;;
17091;SDS011;8661;45.700;4.880;2023-12-20T16:50:14;7.33;;;3.20;;
17091;SDS011;8661;45.700;4.880;2023-12-20T16:53:03;5.90;;;2.10;;
17091;SDS011;8661;45.700;4.880;2023-12-20T16:55:42;7.03;;;2.57;;
17091;SDS011;8661;45.700;4.880;2023-12-20T16:58:17;5.10;;;2.20;;
17091;SDS011;8661;45.700;4.880;2023-12-20T17:01:28;8.07;;;3.17;;
17091;SDS011;8661;45.700;4.880;2023-12-20T17:04:20;7.03;;;2.70;;
17091;SDS011;8661;45.700;4.880;2023-12-20T17:07:50;5.63;;;2.50;;
17091;SDS011;8661;45.700;4.880;2023-12-20T17:10:55;5.00;;;2.60;;
17091;SDS011;8661;45.700;4.880;2023-12-20T17:14:04;7.70;;;3.30;;
17091;SDS011;8661;45.700;4.880;2023-12-20T17:18:10;13.07;;;4.10;;
17091;SDS011;8661;45.700;4.880;2023-12-20T17:20:05;10.50;;;6.20;;
17091;SDS011;8661;45.700;4.880;2023-12-20T17:23:11;11.80;;;6.13;;
17091;SDS011;8661;45.700;4.880;2023-12-20T17:25:46;12.77;;;5.73;;
17091;SDS011;8661;45.700;4.880;2023-12-20T17:29:03;14.23;;;5.27;;
17091;SDS011;8661;45.700;4.880;2023-12-20T17:31:30;10.17;;;4.87;;
17091;SDS011;8661;45.700;4.880;2023-12-20T17:34:21;12.63;;;4.30;;
17091;SDS011;8661;45.700;4.880;2023-12-20T17:40:30;8.50;;;4.10;;
17091;SDS011;8661;45.700;4.880;2023-12-20T17:43:05;8.43;;;4.07;;
17091;SDS011;8661;45.700;4.880;2023-12-20T17:45:43;11.10;;;3.97;;
17091;SDS011;8661;45.700;4.880;2023-12-20T17:48:37;6.70;;;4.53;;
17091;SDS011;8661;45.700;4.880;2023-12-20T17:51:17;11.77;;;4.87;;
17091;SDS011;8661;45.700;4.880;2023-12-20T17:53:51;14.90;;;5.00;;
17091;SDS011;8661;45.700;4.880;2023-12-20T17:56:27;7.53;;;4.80;;
17091;SDS011;8661;45.700;4.880;2023-12-20T17:59:24;10.17;;;5.33;;
17091;SDS011;8661;45.700;4.880;2023-12-20T18:02:12;11.93;;;4.97;;